NCAR-RAP Real-Time Weather Data

Output produced by METARs form (23 February 2020  02:38 UTC)
found at http://weather.rap.ucar.edu/surface/
 
KEWR 230151Z 27004KT 10SM CLR 06/M13 A3021 RMK AO2 SLP228 T00611133
KEWR 230051Z 22005KT 10SM CLR 05/M13 A3020 RMK AO2 SLP227 T00501133
KEWR 222351Z 21008KT 10SM CLR 07/M14 A3019 RMK AO2 SLP223 T00671144 10106 20061 53012
KEWR 222251Z 25008KT 10SM CLR 09/M16 A3017 RMK AO2 SLP214 T00891161
KEWR 222151Z 25014KT 10SM FEW250 10/M16 A3015 RMK AO2 SLP210 T01001161
KEWR 222051Z 24015G21KT 10SM CLR 10/M16 A3016 RMK AO2 SLP211 T01001156 56018
KEWR 221951Z 25015KT 10SM CLR 10/M16 A3017 RMK AO2 SLP215 T01001156
KEWR 221851Z 26014G21KT 10SM CLR 09/M16 A3018 RMK AO2 SLP220 T00941156
KEWR 221751Z 24013KT 10SM CLR 09/M15 A3021 RMK AO2 SLP230 T00891150 10089 21039 58028
KEWR 221651Z 27012KT 10SM FEW250 07/M15 A3025 RMK AO2 SLP244 T00721150
KEWR 221551Z 27010KT 10SM FEW250 05/M14 A3028 RMK AO2 SLP252 T00501139
KEWR 221451Z 25011KT 10SM SCT250 03/M14 A3030 RMK AO2 SLP258 T00331139 50001
KEWR 221351Z 24011KT 10SM FEW250 01/M13 A3031 RMK AO2 SLP263 T00111128
KEWR 221251Z 23008KT 10SM CLR M01/M12 A3031 RMK AO2 SLP262 T10061122
KEWR 221151Z 22007KT 10SM CLR M04/M12 A3030 RMK AO2 SLP258 T10441122 11017 21044 51007
KEWR 221051Z 24005KT 10SM CLR M03/M13 A3029 RMK AO2 SLP257 T10331128
KEWR 220951Z 23007KT 10SM CLR M02/M13 A3028 RMK AO2 SLP253 T10221133
KEWR 220851Z 23010KT 10SM CLR M02/M13 A3027 RMK AO2 SLP250 T10221133 58021
KEWR 220751Z 23008KT 10SM CLR M02/M14 A3030 RMK AO2 SLP258 T10221139
KEWR 220651Z 24011KT 10SM CLR M02/M14 A3032 RMK AO2 SLP267 T10171144
KEWR 220551Z 23010KT 10SM CLR M02/M14 A3034 RMK AO2 SLP271 T10221144 10006 21028 58017
KEWR 220451Z 23010KT 10SM CLR M02/M15 A3035 RMK AO2 SLP277 T10171150 400281067
KEWR 220351Z 23007KT 10SM CLR M01/M15 A3037 RMK AO2 SLP283 T10111150
KEWR 220251Z 24009KT 10SM CLR M01/M16 A3039 RMK AO2 SLP288 T10061156 58008
KEWR 220151Z 23011KT 10SM CLR 00/M15 A3041 RMK AO2 SLP295 T00001150
KEWR 220051Z 24008KT 10SM CLR 00/M15 A3041 RMK AO2 SLP295 T00001150
KEWR 212351Z 23008KT 10SM CLR 01/M16 A3041 RMK AO2 SLP297 T00061161 10028 20000 56004
KEWR 212251Z 26009KT 10SM CLR 01/M17 A3041 RMK AO2 SLP297 T00111172
KEWR 212151Z 28006KT 10SM CLR 02/M18 A3042 RMK AO2 SLP298 T00171183
KEWR 212051Z 25006KT 10SM CLR 02/M18 A3042 RMK AO2 SLP301 T00221178 56019
KEWR 211951Z 25009KT 220V300 10SM CLR 02/M19 A3043 RMK AO2 SLP304 T00221189
KEWR 211851Z 27008KT 10SM CLR 02/M19 A3046 RMK AO2 SLP312 T00171194
KEWR 211751Z 33007KT 310V040 10SM CLR 01/M18 A3048 RMK AO2 SLP320 T00061178 10006 21067 58014
KEWR 211651Z 32007KT 10SM CLR M01/M16 A3051 RMK AO2 SLP329 T10061161
KEWR 211551Z 36005KT 10SM FEW050 M02/M16 A3052 RMK AO2 SLP334 T10171156
KEWR 211451Z 01010KT 10SM FEW035 M03/M14 A3052 RMK AO2 SLP335 T10281144 51013
KEWR 211351Z 35009KT 10SM FEW030 M04/M14 A3051 RMK AO2 SLP332 T10441139
KEWR 211251Z 35012KT 10SM FEW025 M05/M13 A3051 RMK AO2 SLP330 T10501133
KEWR 211151Z 35010KT 10SM FEW020 FEW250 M06/M14 A3048 RMK AO2 SLP322 T10611139 11044 21067 53009
KEWR 211051Z 36009KT 10SM FEW250 M07/M14 A3047 RMK AO2 SLP318 T10671144
KEWR 210951Z 35012KT 10SM FEW250 M06/M14 A3046 RMK AO2 SLP312 T10611144
KEWR 210851Z 35015KT 10SM FEW250 M06/M15 A3046 RMK AO2 SLP312 T10561150 58002
KEWR 210751Z 35017KT 10SM FEW250 M05/M15 A3046 RMK AO2 SLP314 T10501150
KEWR 210651Z 34012KT 10SM FEW220 M05/M15 A3047 RMK AO2 SLP317 T10501150
KEWR 210551Z 35020KT 10SM FEW220 M04/M15 A3046 RMK AO2 SLP315 T10441150 10006 21044 51004
KEWR 210451Z 35016KT 10SM SCT210 SCT250 M04/M14 A3046 RMK AO2 PK WND 34027/0356 SLP315 T10391139 400281039
KEWR 210351Z 36017G21KT 10SM SCT210 BKN250 M03/M13 A3046 RMK AO2 SLP314 T10281133
KEWR 210251Z 34014KT 10SM FEW070 SCT220 BKN260 M02/M14 A3045 RMK AO2 SLP311 T10171144 53009